createdAt,value
2022-10-01T03:03:11.549Z,8.70
2022-10-01T03:05:38.665Z,8.80
2022-10-01T03:08:05.810Z,8.70
2022-10-01T03:10:33.016Z,8.80
2022-10-01T03:13:01.642Z,8.70
2022-10-01T03:15:29.023Z,8.90
2022-10-01T03:17:56.178Z,8.90
2022-10-01T03:20:24.249Z,8.90
2022-10-01T03:22:51.411Z,8.90
2022-10-01T03:25:18.538Z,8.90
2022-10-01T03:27:46.583Z,8.80
2022-10-01T03:30:14.082Z,8.80
2022-10-01T03:32:41.181Z,8.80
2022-10-01T03:35:08.771Z,8.90
2022-10-01T03:37:35.973Z,8.90
2022-10-01T03:40:03.288Z,8.90
2022-10-01T03:42:30.427Z,8.90
2022-10-01T03:44:57.528Z,8.90
2022-10-01T03:47:26.099Z,9.00
2022-10-01T03:49:53.208Z,8.90
2022-10-01T03:52:20.406Z,8.90
2022-10-01T03:54:47.554Z,8.80
2022-10-01T03:57:14.664Z,8.70
2022-10-01T03:59:42.566Z,8.70
2022-10-01T04:02:09.829Z,8.60
2022-10-01T04:04:37.049Z,8.50
2022-10-01T04:07:04.160Z,8.40
2022-10-01T04:09:31.288Z,8.50
2022-10-01T04:11:59.155Z,8.50
2022-10-01T04:14:26.288Z,8.60
2022-10-01T04:16:53.415Z,8.70
2022-10-01T04:19:20.583Z,8.70
2022-10-01T04:21:47.953Z,8.60
2022-10-01T04:24:15.070Z,8.60
2022-10-01T04:26:42.197Z,8.70
2022-10-01T04:29:09.604Z,8.70
2022-10-01T04:31:37.169Z,8.70
2022-10-01T04:34:04.630Z,8.70
2022-10-01T04:36:31.841Z,8.70
2022-10-01T04:39:02.495Z,8.60
2022-10-01T04:41:33.324Z,8.60
2022-10-01T04:44:00.954Z,8.60
2022-10-01T04:46:30.325Z,8.70
2022-10-01T04:48:57.899Z,8.70
2022-10-01T04:51:25.252Z,8.70
2022-10-01T04:53:52.394Z,8.70
2022-10-01T04:56:19.550Z,8.80
2022-10-01T04:58:46.732Z,8.80
2022-10-01T05:01:13.846Z,8.80
2022-10-01T05:03:41.283Z,8.80
2022-10-01T05:06:08.392Z,8.70
2022-10-01T05:08:35.493Z,8.70
2022-10-01T05:11:03.079Z,8.80
2022-10-01T05:13:31.867Z,8.90
2022-10-01T05:15:59.503Z,8.90
2022-10-01T05:18:26.723Z,8.90
2022-10-01T05:20:53.826Z,9.00
2022-10-01T05:23:20.926Z,9.10
2022-10-01T05:25:48.084Z,9.20
2022-10-01T05:28:21.396Z,9.20
2022-10-01T05:30:51.056Z,9.20
2022-10-01T05:33:18.451Z,9.10
2022-10-01T05:35:45.579Z,9.10
2022-10-01T05:38:12.740Z,9.30
2022-10-01T05:40:39.874Z,9.40
2022-10-01T05:43:07.038Z,9.40
2022-10-01T05:45:34.300Z,9.40
2022-10-01T05:48:04.229Z,9.30
2022-10-01T05:50:33.811Z,9.30
2022-10-01T05:53:02.056Z,9.30
2022-10-01T05:55:34.371Z,9.30
2022-10-01T05:58:04.348Z,9.40
2022-10-01T06:00:33.362Z,9.50
2022-10-01T06:03:02.343Z,9.60
2022-10-01T06:05:30.758Z,9.60
2022-10-01T06:07:58.252Z,9.60
2022-10-01T06:10:25.729Z,9.70
2022-10-01T06:12:57.908Z,9.70
2022-10-01T06:15:25.013Z,9.80
2022-10-01T06:17:52.213Z,9.90
2022-10-01T06:20:20.167Z,9.90
2022-10-01T06:22:54.959Z,9.90
2022-10-01T06:25:22.500Z,10.00
2022-10-01T06:27:55.565Z,10.10
2022-10-01T06:30:23.130Z,10.30
2022-10-01T06:32:50.255Z,10.20
2022-10-01T06:35:17.385Z,10.30
2022-10-01T06:37:44.485Z,10.40
2022-10-01T06:40:11.609Z,10.40
2022-10-01T06:42:38.705Z,10.50
2022-10-01T06:45:06.359Z,10.50
2022-10-01T06:47:33.455Z,10.50
2022-10-01T06:50:00.575Z,10.60
2022-10-01T06:52:47.188Z,10.60
2022-10-01T06:55:16.827Z,10.60
2022-10-01T06:57:44.404Z,10.70
2022-10-01T07:00:13.061Z,10.70
2022-10-01T07:02:40.922Z,10.70
2022-10-01T07:05:08.578Z,10.80
2022-10-01T07:07:37.905Z,10.90
2022-10-01T07:10:07.622Z,11.00
2022-10-01T07:12:36.159Z,11.00
2022-10-01T07:15:05.752Z,11.00
2022-10-01T07:17:33.025Z,11.10
2022-10-01T07:20:01.627Z,11.10
2022-10-01T07:22:28.754Z,11.10
2022-10-01T07:24:55.919Z,11.10
2022-10-01T07:27:23.073Z,11.10
2022-10-01T07:29:50.226Z,11.20
2022-10-01T07:32:17.367Z,11.10
2022-10-01T07:34:44.617Z,11.20
2022-10-01T07:37:11.861Z,11.20
2022-10-01T07:39:39.083Z,11.30
2022-10-01T07:42:06.569Z,11.20
2022-10-01T07:44:33.829Z,11.30
2022-10-01T07:47:01.083Z,11.40
2022-10-01T07:49:28.294Z,11.40
2022-10-01T07:51:55.806Z,11.30
2022-10-01T07:54:23.047Z,11.40
2022-10-01T07:56:52.995Z,11.50
2022-10-01T07:59:20.139Z,11.60
2022-10-01T08:01:54.648Z,11.50
2022-10-01T08:04:40.898Z,11.60
2022-10-01T08:07:08.683Z,11.60
2022-10-01T08:09:35.895Z,11.60
2022-10-01T08:12:03.202Z,11.70
2022-10-01T08:14:30.552Z,11.80
2022-10-01T08:16:58.210Z,11.80
2022-10-01T08:19:25.448Z,11.90
2022-10-01T08:21:52.999Z,11.90
2022-10-01T08:24:20.228Z,12.10
2022-10-01T08:26:53.446Z,12.10
2022-10-01T08:29:20.623Z,12.10
2022-10-01T08:31:47.920Z,12.20
2022-10-01T08:34:15.288Z,12.20
2022-10-01T08:36:42.380Z,12.30
2022-10-01T08:39:09.636Z,12.40
2022-10-01T08:41:43.094Z,12.40
2022-10-01T08:44:21.798Z,12.40
2022-10-01T08:46:51.784Z,12.50
2022-10-01T08:49:19.127Z,12.50
2022-10-01T08:51:57.328Z,12.50
2022-10-01T08:54:46.337Z,12.60
2022-10-01T08:57:19.511Z,12.60
2022-10-01T08:59:52.029Z,12.60
2022-10-01T09:02:29.667Z,12.60
2022-10-01T09:05:02.862Z,12.60
2022-10-01T09:07:52.013Z,12.70
2022-10-01T09:10:56.379Z,12.80
2022-10-01T09:13:49.940Z,13.00
2022-10-01T09:16:42.217Z,12.90
2022-10-01T09:19:40.438Z,12.90
2022-10-01T09:22:13.973Z,13.00
2022-10-01T09:24:50.461Z,13.10
2022-10-01T09:27:20.672Z,13.00
2022-10-01T09:29:56.196Z,13.00
2022-10-01T09:32:31.023Z,13.10
2022-10-01T09:35:04.618Z,13.20
2022-10-01T09:37:57.191Z,13.20
2022-10-01T09:40:35.679Z,13.20
2022-10-01T09:43:08.863Z,13.20
2022-10-01T09:45:38.278Z,12.80
2022-10-01T09:48:18.828Z,12.80
2022-10-01T09:50:58.997Z,12.80
2022-10-01T09:54:10.189Z,12.80
2022-10-01T09:56:42.521Z,12.70
2022-10-01T09:59:17.273Z,12.60
2022-10-01T10:01:51.852Z,12.50
2022-10-01T10:04:26.132Z,12.40
2022-10-01T10:07:01.990Z,12.30
2022-10-01T10:09:34.999Z,12.40
2022-10-01T10:12:03.080Z,12.40
2022-10-01T10:14:38.219Z,12.40
2022-10-01T10:17:16.741Z,12.30
2022-10-01T10:19:52.310Z,12.30
2022-10-01T10:22:27.348Z,12.40
2022-10-01T10:24:58.459Z,12.40
2022-10-01T10:27:30.699Z,12.40
2022-10-01T10:30:08.610Z,12.40
2022-10-01T10:32:36.301Z,12.40
2022-10-01T10:35:10.555Z,12.40
2022-10-01T10:37:44.730Z,12.40
2022-10-01T10:40:29.454Z,12.40
2022-10-01T10:42:59.150Z,12.50
2022-10-01T10:45:35.511Z,12.50
2022-10-01T10:48:06.980Z,12.60
2022-10-01T10:50:37.892Z,12.60
2022-10-01T10:53:25.051Z,12.40
2022-10-01T10:56:06.586Z,12.40
2022-10-01T10:58:40.334Z,12.30
2022-10-01T11:01:13.116Z,12.30
2022-10-01T11:03:48.239Z,12.30
2022-10-01T11:06:18.594Z,12.30
2022-10-01T11:08:57.190Z,12.40
2022-10-01T11:12:00.830Z,12.30
2022-10-01T11:14:28.046Z,12.20
2022-10-01T11:17:24.825Z,12.30
2022-10-01T11:20:07.369Z,12.30
2022-10-01T11:22:52.491Z,12.30
2022-10-01T11:25:27.413Z,12.20
2022-10-01T11:28:26.851Z,12.20
2022-10-01T11:31:18.229Z,12.20
2022-10-01T11:34:10.283Z,12.00
2022-10-01T11:36:49.199Z,12.10
2022-10-01T11:39:21.422Z,12.10
2022-10-01T11:42:04.130Z,12.20
2022-10-01T11:44:36.698Z,12.10
2022-10-01T11:49:57.519Z,11.90
2022-10-01T11:52:46.444Z,12.00
2022-10-01T11:56:01.120Z,12.10
2022-10-01T11:59:04.258Z,12.10
2022-10-01T12:01:49.682Z,12.20
2022-10-01T12:04:25.473Z,12.00
2022-10-01T12:06:59.569Z,12.00
2022-10-01T12:09:35.207Z,11.90
2022-10-01T12:12:15.437Z,11.80
2022-10-01T12:15:06.671Z,11.70
2022-10-01T12:17:54.637Z,11.40
2022-10-01T12:20:35.907Z,11.40
2022-10-01T12:23:06.118Z,11.30
2022-10-01T12:25:59.678Z,11.30
2022-10-01T12:28:39.898Z,11.10
2022-10-01T12:31:17.804Z,11.20
2022-10-01T12:33:59.820Z,11.20
2022-10-01T12:36:42.791Z,11.20
2022-10-01T12:39:29.210Z,11.20
2022-10-01T12:42:13.263Z,11.30
2022-10-01T12:44:48.411Z,11.20
2022-10-01T12:47:36.391Z,11.30
2022-10-01T12:50:15.868Z,11.30
2022-10-01T12:53:04.905Z,11.30
2022-10-01T12:56:10.853Z,11.30
2022-10-01T12:58:56.182Z,11.30
2022-10-01T13:02:04.950Z,11.20
2022-10-01T13:04:38.564Z,11.20
2022-10-01T13:07:26.441Z,11.40
2022-10-01T13:09:53.517Z,11.40
2022-10-01T13:12:49.903Z,11.50
2022-10-01T13:15:22.241Z,11.50
2022-10-01T13:18:09.414Z,11.60
2022-10-01T13:20:54.104Z,11.60
2022-10-01T13:23:47.210Z,11.60
2022-10-01T13:26:26.427Z,11.60
2022-10-01T13:29:19.041Z,11.70
2022-10-01T13:31:51.933Z,11.70
2022-10-01T13:34:28.777Z,11.60
2022-10-01T13:36:55.968Z,11.70
2022-10-01T13:39:24.334Z,11.60
2022-10-01T13:41:58.465Z,11.60
2022-10-01T13:44:34.690Z,11.60
2022-10-01T13:47:07.085Z,11.60
2022-10-01T13:49:36.298Z,11.60
2022-10-01T13:52:04.404Z,11.70
2022-10-01T13:54:39.945Z,11.70
2022-10-01T13:57:08.572Z,11.70
2022-10-01T13:59:37.881Z,11.70
2022-10-01T14:02:30.079Z,11.60
2022-10-01T14:05:12.607Z,11.60
2022-10-01T14:07:40.269Z,11.60
2022-10-01T14:10:13.580Z,11.60
2022-10-01T14:13:02.604Z,11.70
2022-10-01T14:15:59.153Z,11.70
2022-10-01T14:18:32.597Z,11.80
2022-10-01T14:21:25.652Z,11.80
2022-10-01T14:24:03.117Z,11.80
2022-10-01T14:26:43.084Z,11.70
2022-10-01T14:29:36.209Z,11.80
2022-10-01T14:32:27.654Z,11.70
2022-10-01T14:35:19.320Z,11.80
2022-10-01T14:37:46.937Z,11.80
2022-10-01T14:40:18.972Z,11.90
2022-10-01T14:43:00.532Z,11.90
2022-10-01T14:45:29.099Z,11.90
2022-10-01T14:48:07.047Z,12.00
2022-10-01T14:50:37.425Z,11.90
2022-10-01T14:53:06.238Z,11.90
2022-10-01T14:55:35.660Z,12.10
2022-10-01T14:58:04.633Z,12.10
2022-10-01T15:00:33.333Z,12.20
2022-10-01T15:03:15.068Z,12.20
2022-10-01T15:05:43.805Z,12.20
2022-10-01T15:08:15.166Z,12.30
2022-10-01T15:10:48.760Z,12.30
2022-10-01T15:13:26.641Z,12.30
2022-10-01T15:15:55.190Z,12.30
2022-10-01T15:18:23.931Z,12.30
2022-10-01T15:20:57.540Z,12.30
2022-10-01T15:23:26.356Z,12.30
2022-10-01T15:25:55.628Z,12.30
2022-10-01T15:28:31.825Z,12.20
2022-10-01T15:31:03.235Z,12.20
2022-10-01T15:33:33.111Z,12.30
2022-10-01T15:36:04.053Z,12.40
2022-10-01T15:38:32.643Z,12.30
2022-10-01T15:41:26.845Z,12.30
2022-10-01T15:43:51.067Z,12.40
2022-10-01T15:46:35.266Z,12.30
2022-10-01T15:49:14.923Z,12.30
2022-10-01T15:52:22.531Z,12.40
2022-10-01T15:54:58.694Z,12.30
2022-10-01T15:57:28.184Z,12.30
2022-10-01T15:59:57.725Z,12.20
2022-10-01T16:02:30.536Z,12.30
2022-10-01T16:05:07.342Z,12.30
2022-10-01T16:07:35.400Z,12.40
2022-10-01T16:10:36.318Z,12.40
2022-10-01T16:13:38.081Z,12.40
2022-10-01T16:16:11.001Z,12.50
2022-10-01T16:18:38.573Z,12.50
2022-10-01T16:21:09.230Z,12.60
2022-10-01T16:23:50.010Z,12.60
2022-10-01T16:26:38.501Z,12.60
2022-10-01T16:29:24.046Z,12.60
2022-10-01T16:31:51.699Z,12.70
2022-10-01T16:34:20.972Z,12.60
2022-10-01T16:36:48.231Z,12.60
2022-10-01T16:39:15.616Z,12.60
2022-10-01T16:41:56.583Z,12.60
2022-10-01T16:44:37.964Z,12.60
2022-10-01T16:47:05.279Z,12.60
2022-10-01T16:49:32.938Z,12.70
2022-10-01T16:52:00.149Z,12.70
2022-10-01T16:54:27.593Z,12.60
2022-10-01T16:56:55.318Z,12.60
2022-10-01T16:59:24.675Z,12.60
2022-10-01T17:01:54.931Z,12.60
2022-10-01T17:04:22.664Z,12.60
2022-10-01T17:06:50.232Z,12.60
2022-10-01T17:09:17.379Z,12.60
2022-10-01T17:11:46.369Z,12.70
2022-10-01T17:14:17.461Z,12.70
2022-10-01T17:16:45.533Z,12.60
2022-10-01T17:19:13.252Z,12.50
2022-10-01T17:21:41.477Z,12.60
2022-10-01T17:24:12.204Z,12.60
2022-10-01T17:26:45.367Z,12.60
2022-10-01T17:29:13.047Z,12.60
2022-10-01T17:31:41.378Z,12.60
2022-10-01T17:34:08.593Z,12.60
2022-10-01T17:36:35.946Z,12.60
2022-10-01T17:39:03.847Z,12.60
2022-10-01T17:41:31.019Z,12.60
2022-10-01T17:43:58.416Z,12.60
2022-10-01T17:46:25.534Z,12.50
2022-10-01T17:48:52.806Z,12.50
2022-10-01T17:51:20.981Z,12.60
2022-10-01T17:53:48.173Z,12.60
2022-10-01T17:56:17.973Z,12.60
2022-10-01T17:58:46.399Z,12.60
2022-10-01T18:01:16.583Z,12.60
2022-10-01T18:03:43.843Z,12.60
2022-10-01T18:06:15.135Z,12.60
2022-10-01T18:08:55.197Z,12.70
2022-10-01T18:11:27.248Z,12.70
2022-10-01T18:13:54.486Z,12.70
2022-10-01T18:16:22.927Z,12.70
2022-10-01T18:21:45.817Z,12.80
2022-10-01T18:24:14.002Z,12.80
2022-10-01T18:26:41.363Z,12.80
2022-10-01T18:29:08.888Z,12.80
2022-10-01T18:31:41.005Z,12.90
2022-10-01T18:34:26.298Z,12.80
2022-10-01T18:36:59.134Z,12.80
2022-10-01T18:40:00.043Z,12.80
2022-10-01T18:42:54.565Z,12.80
2022-10-01T18:45:44.874Z,12.80
2022-10-01T18:48:48.563Z,12.90
2022-10-01T18:51:37.486Z,12.90
2022-10-01T18:54:26.190Z,12.90
2022-10-01T18:57:18.726Z,12.90
2022-10-01T19:00:07.375Z,12.90
2022-10-01T19:02:55.435Z,12.90
2022-10-01T19:05:37.351Z,12.90
2022-10-01T19:08:31.126Z,12.90
2022-10-01T19:11:01.025Z,12.90
2022-10-01T19:13:55.231Z,12.90
2022-10-01T19:16:28.390Z,12.80
2022-10-01T19:19:40.387Z,12.80
2022-10-01T19:22:28.558Z,12.80
2022-10-01T19:25:19.011Z,12.90
2022-10-01T19:28:23.831Z,12.80
2022-10-01T19:31:08.777Z,12.80
2022-10-01T19:33:46.707Z,12.80
2022-10-01T19:36:24.412Z,12.80
2022-10-01T19:38:55.317Z,12.90
2022-10-01T19:41:36.232Z,12.80
2022-10-01T19:44:12.953Z,12.90
2022-10-01T19:46:49.387Z,12.90
2022-10-01T19:49:22.567Z,13.00
2022-10-01T19:51:59.215Z,12.90
2022-10-01T19:54:37.548Z,12.90
2022-10-01T19:57:26.089Z,12.90
2022-10-01T20:00:11.981Z,13.00
2022-10-01T20:03:18.014Z,12.90
2022-10-01T20:05:53.030Z,13.00
2022-10-01T20:08:55.869Z,13.00
2022-10-01T20:11:42.143Z,13.00
2022-10-01T20:15:00.602Z,13.00
2022-10-01T20:17:57.853Z,13.10
2022-10-01T20:20:57.379Z,13.10
2022-10-01T20:23:39.182Z,13.00
2022-10-01T20:26:09.349Z,13.00
2022-10-01T20:29:22.960Z,13.10
2022-10-01T20:32:04.005Z,13.10
2022-10-01T20:34:56.413Z,13.10
2022-10-01T20:37:38.305Z,13.00
2022-10-01T20:40:10.946Z,13.00
2022-10-01T20:42:46.648Z,13.10
2022-10-01T20:45:21.177Z,13.10
2022-10-01T20:47:54.605Z,13.10
2022-10-01T20:50:43.789Z,13.10
2022-10-01T20:53:35.815Z,13.00
2022-10-01T20:56:10.438Z,13.00
2022-10-01T20:58:50.159Z,13.10
